Time;durP1;ratioP1;P1;durP2;ratioP2;P2;SDS_P1;SDS_P2;PMS_P1;PMS_P2;Temp;Humidity;BMP_temperature;BMP_pressure;BME280_temperature;BME280_humidity;BME280_pressure;Samples;Min_cycle;Max_cycle;Signal;HPM_P1;HPM_P2
2022/10/03 00:00:10;;;;;;;0.40;0.40;;;;;;;14.64;75.02;99183.44;4248295;33;33890;-87
2022/10/03 00:03:09;;;;;;;0.35;0.35;;;;;;;14.72;74.52;99172.75;4235465;33;35071;-85
2022/10/03 00:05:53;;;;;;;0.35;0.35;;;;;;;14.41;75.62;99176.25;4248116;33;35100;-85
2022/10/03 00:08:28;;;;;;;0.30;0.30;;;;;;;14.71;74.48;99178.91;4247797;33;34213;-79
2022/10/03 00:11:33;;;;;;;0.30;0.30;;;;;;;14.43;75.50;99184.91;4248041;33;34096;-86
2022/10/03 00:14:12;;;;;;;0.20;0.20;;;;;;;14.49;75.18;99190.00;4248050;33;34736;-90
2022/10/03 00:17:12;;;;;;;0.20;0.20;;;;;;;14.66;74.69;99186.03;4248012;33;34444;-87
2022/10/03 00:19:50;;;;;;;0.57;0.50;;;;;;;14.73;74.15;99192.81;4224270;33;33449;-88
2022/10/03 00:22:27;;;;;;;0.65;0.65;;;;;;;14.74;74.06;99197.16;4248332;33;33917;-78
2022/10/03 00:25:14;;;;;;;0.30;0.30;;;;;;;14.44;75.24;99196.28;4235276;33;34971;-86
2022/10/03 00:27:48;;;;;;;0.28;0.28;;;;;;;14.66;74.30;99193.91;4234864;33;33653;-88
2022/10/03 00:30:23;;;;;;;0.68;0.68;;;;;;;14.75;73.79;99191.88;4223674;33;33326;-78
2022/10/03 00:33:12;;;;;;;0.30;0.30;;;;;;;14.35;74.85;99192.16;4235315;33;34041;-87
2022/10/03 00:36:07;;;;;;;0.30;0.30;;;;;;;14.82;73.43;99197.75;4223801;33;35350;-85
2022/10/03 00:39:14;;;;;;;0.52;0.52;;;;;;;14.43;75.09;99187.53;4235099;33;34573;-79
2022/10/03 00:42:00;;;;;;;0.30;0.30;;;;;;;14.55;74.49;99181.94;4245839;33;33427;-87
2022/10/03 00:45:06;;;;;;;0.30;0.30;;;;;;;14.62;73.98;99195.75;4247925;33;33928;-86
2022/10/03 00:47:52;;;;;;;0.40;0.40;;;;;;;14.59;73.66;99196.72;4247781;33;36079;-86
2022/10/03 00:50:36;;;;;;;0.20;0.20;;;;;;;14.77;73.31;99192.69;4247891;33;34568;-85
2022/10/03 00:53:14;;;;;;;0.35;0.35;;;;;;;14.47;74.14;99189.19;4247608;33;33601;-78
2022/10/03 00:56:09;;;;;;;0.45;0.45;;;;;;;14.50;74.52;99193.47;4247829;33;34003;-87
2022/10/03 00:59:17;;;;;;;0.30;0.30;;;;;;;14.67;74.00;99196.47;4247704;33;35601;-79
2022/10/03 01:01:47;;;;;;;0.20;0.20;;;;;;;14.60;73.93;99198.41;4231289;33;34417;-89
2022/10/03 01:04:29;;;;;;;0.35;0.35;;;;;;;14.55;74.46;99196.81;4235099;33;33378;-87
2022/10/03 01:07:18;;;;;;;0.40;0.40;;;;;;;14.45;74.72;99198.81;4247861;33;33932;-87
2022/10/03 01:10:08;;;;;;;0.40;0.40;;;;;;;14.78;74.07;99201.37;4247395;33;34839;-88
2022/10/03 01:12:46;;;;;;;0.30;0.30;;;;;;;14.85;73.09;99196.81;4235161;33;34574;-89
2022/10/03 01:15:23;;;;;;;0.30;0.30;;;;;;;14.70;73.05;99200.75;4235042;33;33438;-89
2022/10/03 01:18:09;;;;;;;0.30;0.30;;;;;;;14.71;73.04;99192.00;4247641;33;33917;-87
2022/10/03 01:20:59;;;;;;;0.37;0.37;;;;;;;14.41;74.22;99186.72;4247651;33;34707;-86
2022/10/03 01:24:04;;;;;;;0.40;0.40;;;;;;;14.40;74.36;99187.66;4234673;33;34529;-80
2022/10/03 01:27:04;;;;;;;0.30;0.30;;;;;;;14.13;75.33;99192.72;4247701;33;33624;-88
2022/10/03 01:32:46;;;;;;;0.25;0.25;;;;;;;14.06;75.41;99196.41;4247443;33;35875;-89
2022/10/03 01:35:26;;;;;;;0.40;0.40;;;;;;;14.02;75.33;99200.03;4224275;33;35213;-88
2022/10/03 01:38:17;;;;;;;0.50;0.50;;;;;;;13.89;75.87;99201.25;4247644;33;33322;-86
2022/10/03 01:41:01;;;;;;;0.30;0.30;;;;;;;13.83;75.85;99203.13;4235124;33;34764;-86
2022/10/03 01:43:43;;;;;;;0.55;0.55;;;;;;;13.84;75.99;99209.25;4228807;33;35533;-79
2022/10/03 01:46:21;;;;;;;0.30;0.30;;;;;;;13.91;75.74;99212.56;4247659;33;35168;-90
2022/10/03 01:49:08;;;;;;;0.40;0.40;;;;;;;13.83;76.31;99216.22;4234894;33;33452;-87
2022/10/03 01:52:07;;;;;;;0.60;0.60;;;;;;;13.84;76.14;99212.72;4247619;33;34576;-87
2022/10/03 01:54:59;;;;;;;0.30;0.30;;;;;;;13.83;76.10;99217.97;4247485;33;35312;-87
2022/10/03 01:57:54;;;;;;;1.30;0.60;;;;;;;14.01;75.01;99217.50;4235078;33;35179;-78
2022/10/03 02:00:24;;;;;;;0.60;0.60;;;;;;;13.63;76.39;99226.34;4247426;33;33351;-83
2022/10/03 02:03:16;;;;;;;0.37;0.37;;;;;;;13.61;77.13;99220.28;4234666;33;34129;-89
2022/10/03 02:06:35;;;;;;;0.30;0.30;;;;;;;13.40;77.50;99219.06;4234899;33;35892;-89
2022/10/03 02:09:10;;;;;;;0.40;0.40;;;;;;;13.67;76.87;99224.50;4223630;33;35326;-80
2022/10/03 02:12:08;;;;;;;0.77;0.52;;;;;;;13.88;75.82;99228.34;4247498;33;33465;-81
2022/10/03 02:14:47;;;;;;;0.40;0.40;;;;;;;13.45;77.47;99236.38;4234116;33;34898;-88
2022/10/03 02:17:29;;;;;;;0.22;0.22;;;;;;;13.61;77.02;99236.00;4222776;33;34396;-90
2022/10/03 02:20:26;;;;;;;0.30;0.30;;;;;;;13.78;76.09;99239.06;4247237;33;34552;-88
2022/10/03 02:22:56;;;;;;;0.30;0.30;;;;;;;13.72;75.92;99233.97;4247220;33;33498;-79
2022/10/03 02:25:50;;;;;;;0.30;0.30;;;;;;;13.90;74.94;99230.00;4234497;33;33807;-88
2022/10/03 02:28:40;;;;;;;0.30;0.30;;;;;;;14.04;74.15;99240.97;4234465;33;35124;-88
2022/10/03 02:31:31;;;;;;;0.47;0.47;;;;;;;13.83;75.23;99234.53;4247032;33;34419;-79
2022/10/03 02:34:30;;;;;;;0.30;0.30;;;;;;;13.63;75.75;99247.28;4247129;33;34337;-87
2022/10/03 02:37:29;;;;;;;0.30;0.30;;;;;;;13.65;75.87;99248.09;4247049;33;34025;-87
2022/10/03 02:40:27;;;;;;;0.20;0.20;;;;;;;13.82;74.87;99248.53;4246983;33;35049;-79
2022/10/03 02:43:33;;;;;;;0.25;0.25;;;;;;;13.53;75.99;99253.63;4234281;33;34430;-86
2022/10/03 02:46:38;;;;;;;0.50;0.50;;;;;;;13.69;75.73;99254.97;4245689;33;33964;-87
2022/10/03 02:49:28;;;;;;;0.22;0.22;;;;;;;13.78;75.92;99254.75;4246921;33;33969;-79
2022/10/03 02:51:59;;;;;;;0.20;0.20;;;;;;;13.82;75.64;99242.44;4246774;33;35096;-86
2022/10/03 02:54:33;;;;;;;0.40;0.40;;;;;;;13.94;74.86;99238.63;4247887;33;34997;-86
2022/10/03 02:57:19;;;;;;;1.80;1.65;;;;;;;14.00;74.10;99246.34;4248462;33;34279;-87
2022/10/03 03:00:05;;;;;;;1.77;1.50;;;;;;;13.53;75.64;99245.78;4248501;33;34756;-86
2022/10/03 03:02:56;;;;;;;0.33;0.33;;;;;;;13.64;74.78;99249.88;4248521;33;34936;-87
2022/10/03 03:05:42;;;;;;;0.35;0.35;;;;;;;13.66;74.56;99239.34;4248443;33;34530;-78
2022/10/03 03:08:48;;;;;;;0.52;0.52;;;;;;;13.65;74.37;99240.25;4248189;33;34156;-86
2022/10/03 03:11:43;;;;;;;0.30;0.30;;;;;;;13.46;74.86;99243.31;4248251;33;34886;-87
2022/10/03 03:14:30;;;;;;;0.30;0.30;;;;;;;13.47;74.61;99238.94;4230290;33;34912;-85
2022/10/03 03:17:08;;;;;;;0.95;0.62;;;;;;;13.39;74.19;99251.34;4235692;33;35036;-82
2022/10/03 03:19:41;;;;;;;0.40;0.40;;;;;;;13.56;73.54;99254.41;4248458;33;33163;-80
2022/10/03 03:22:34;;;;;;;0.30;0.30;;;;;;;13.51;74.21;99256.28;4248567;33;34696;-79
2022/10/03 03:25:14;;;;;;;0.35;0.35;;;;;;;13.50;73.91;99256.31;4247910;33;35248;-78
2022/10/03 03:27:45;;;;;;;0.32;0.32;;;;;;;12.67;76.72;99261.59;4248320;33;34626;-86
2022/10/03 03:30:20;;;;;;;0.40;0.40;;;;;;;12.64;77.71;99256.44;4235790;33;33645;-85
2022/10/03 03:33:29;;;;;;;0.40;0.30;;;;;;;12.89;76.49;99257.62;4248304;33;33577;-84
2022/10/03 03:36:29;;;;;;;2.17;1.40;;;;;;;12.98;75.75;99255.72;4216434;33;35775;-87
2022/10/03 03:39:26;;;;;;;0.57;0.47;;;;;;;12.57;77.66;99250.47;4233219;33;36027;-86
2022/10/03 03:42:21;;;;;;;0.40;0.40;;;;;;;13.03;76.03;99254.72;4226620;33;32866;-90
2022/10/03 03:45:05;;;;;;;0.40;0.40;;;;;;;12.99;76.92;99258.31;4236905;33;33765;-85
2022/10/03 03:47:55;;;;;;;0.45;0.45;;;;;;;13.23;75.97;99259.50;4222480;33;33753;-77
2022/10/03 03:50:27;;;;;;;0.40;0.40;;;;;;;13.06;76.93;99261.66;4234012;33;35315;-77
2022/10/03 03:53:09;;;;;;;0.30;0.30;;;;;;;13.18;76.71;99265.72;4234093;33;33432;-77
2022/10/03 03:55:38;;;;;;;0.25;0.25;;;;;;;13.26;75.57;99264.66;4221339;33;34840;-78
2022/10/03 03:58:32;;;;;;;0.65;0.65;;;;;;;13.23;76.22;99269.09;4233735;33;35894;-78
2022/10/03 04:01:25;;;;;;;0.30;0.30;;;;;;;13.33;75.66;99270.66;4221296;33;34463;-80
2022/10/03 04:04:35;;;;;;;1.40;1.17;;;;;;;13.09;76.59;99259.84;4233865;33;34269;-81
2022/10/03 04:07:21;;;;;;;1.30;1.23;;;;;;;13.31;75.93;99268.94;4207294;33;34801;-84
2022/10/03 04:10:13;;;;;;;0.47;0.47;;;;;;;13.29;75.11;99271.59;4230308;33;35861;-78
2022/10/03 04:13:06;;;;;;;0.47;0.47;;;;;;;13.27;74.78;99269.00;4235250;33;33750;-78
2022/10/03 04:15:53;;;;;;;0.30;0.30;;;;;;;13.11;75.82;99282.44;4247752;33;33550;-78
2022/10/03 04:18:57;;;;;;;1.30;1.20;;;;;;;13.06;76.36;99267.75;4247901;33;34722;-78
2022/10/03 04:21:48;;;;;;;0.30;0.30;;;;;;;12.97;76.68;99270.56;4236787;33;35164;-78
2022/10/03 04:24:34;;;;;;;0.40;0.40;;;;;;;12.94;76.29;99269.78;4247875;33;34370;-79
2022/10/03 04:27:30;;;;;;;0.62;0.62;;;;;;;13.13;76.30;99273.69;4247754;33;34575;-84
2022/10/03 04:30:08;;;;;;;0.37;0.37;;;;;;;13.02;76.59;99284.41;4247884;33;33892;-76
2022/10/03 04:33:06;;;;;;;0.37;0.37;;;;;;;13.01;76.55;99285.28;4235168;33;35948;-78
2022/10/03 04:35:43;;;;;;;0.70;0.70;;;;;;;13.38;74.90;99291.47;4234134;33;34569;-84
2022/10/03 04:38:20;;;;;;;0.60;0.60;;;;;;;13.00;76.27;99293.16;4245753;33;33453;-78
2022/10/03 04:41:15;;;;;;;0.40;0.40;;;;;;;13.19;76.35;99301.44;4235044;33;33912;-85
2022/10/03 04:43:59;;;;;;;0.60;0.60;;;;;;;13.20;76.25;99308.37;4247460;33;34803;-85
2022/10/03 04:46:45;;;;;;;0.70;0.70;;;;;;;13.27;75.81;99308.25;4247723;33;34362;-78
2022/10/03 04:49:46;;;;;;;0.52;0.52;;;;;;;13.13;76.77;99306.81;4235320;33;34422;-79
2022/10/03 04:52:14;;;;;;;0.45;0.45;;;;;;;13.27;76.05;99317.81;4247692;33;33773;-78
2022/10/03 04:54:55;;;;;;;2.65;1.75;;;;;;;13.17;76.43;99316.31;4247578;33;36082;-82
2022/10/03 04:57:46;;;;;;;0.70;0.70;;;;;;;13.07;76.76;99324.34;4234740;33;35222;-79
2022/10/03 05:00:27;;;;;;;0.30;0.30;;;;;;;13.11;76.91;99334.75;4247658;33;34353;-86
2022/10/03 05:03:12;;;;;;;0.40;0.40;;;;;;;13.22;76.58;99338.00;4235037;33;34768;-80
2022/10/03 05:05:56;;;;;;;0.30;0.30;;;;;;;13.30;76.25;99337.81;4234776;33;35886;-84
2022/10/03 05:08:41;;;;;;;0.40;0.40;;;;;;;13.50;74.98;99337.41;4234981;33;34548;-77
2022/10/03 05:11:20;;;;;;;0.62;0.62;;;;;;;13.13;75.57;99327.72;4247104;33;33354;-87
2022/10/03 05:13:52;;;;;;;0.70;0.70;;;;;;;13.04;76.96;99324.44;4234830;33;34786;-84
2022/10/03 05:16:46;;;;;;;0.40;0.40;;;;;;;12.89;77.70;99343.88;4246762;33;35954;-81
2022/10/03 05:19:24;;;;;;;0.50;0.50;;;;;;;13.05;76.85;99326.12;4243903;33;34366;-85
2022/10/03 05:22:02;;;;;;;0.37;0.37;;;;;;;12.82;77.24;99333.59;4247519;33;33697;-78
2022/10/03 05:24:35;;;;;;;0.30;0.30;;;;;;;13.44;75.62;99327.94;4247107;33;33844;-88
2022/10/03 05:27:28;;;;;;;0.40;0.40;;;;;;;13.62;74.45;99324.03;4223452;33;36005;-92
2022/10/03 05:30:14;;;;;;;0.60;0.60;;;;;;;13.83;72.92;99322.66;4235202;33;35346;-91
2022/10/03 05:32:56;;;;;;;0.40;0.40;;;;;;;14.36;71.14;99332.69;4247654;33;33441;-91
2022/10/03 05:35:42;;;;;;;0.95;0.95;;;;;;;16.14;63.80;99333.59;4234897;33;33875;-81
2022/10/03 05:38:33;;;;;;;0.40;0.40;;;;;;;16.14;63.26;99336.22;4247306;33;35075;-85
2022/10/03 05:41:22;;;;;;;0.50;0.45;;;;;;;15.63;64.38;99325.53;4235084;33;35262;-87
2022/10/03 05:44:16;;;;;;;0.30;0.30;;;;;;;15.44;65.08;99329.66;4234630;33;34414;-77
2022/10/03 05:46:51;;;;;;;0.40;0.40;;;;;;;15.26;65.83;99326.69;4234058;33;34073;-91
2022/10/03 05:49:44;;;;;;;0.22;0.22;;;;;;;15.26;65.52;99326.69;4247072;33;35927;-90
2022/10/03 05:52:39;;;;;;;0.70;0.70;;;;;;;14.94;66.86;99338.13;4233851;33;34561;-77
2022/10/03 05:55:34;;;;;;;0.60;0.60;;;;;;;15.25;65.37;99340.72;4220448;33;33434;-90
2022/10/03 05:58:16;;;;;;;0.37;0.37;;;;;;;15.41;64.88;99345.50;4233642;33;33952;-92
2022/10/03 06:01:20;;;;;;;0.40;0.40;;;;;;;15.35;64.83;99346.53;4233680;33;35376;-79
2022/10/03 06:03:57;;;;;;;0.20;0.20;;;;;;;15.33;64.43;99350.97;4233463;33;33760;-88
2022/10/03 06:06:48;;;;;;;0.30;0.30;;;;;;;15.68;63.85;99344.63;4246436;33;33548;-88
2022/10/03 06:09:31;;;;;;;0.40;0.40;;;;;;;15.65;63.34;99342.12;4222091;33;33687;-78
2022/10/03 06:12:27;;;;;;;0.60;0.60;;;;;;;15.89;62.78;99351.00;4246435;33;34723;-87
2022/10/03 06:15:09;;;;;;;0.30;0.30;;;;;;;16.07;61.83;99354.78;4233593;33;34113;-90
2022/10/03 06:18:15;;;;;;;2.50;1.37;;;;;;;15.64;61.92;99350.91;4233528;33;33591;-77
2022/10/03 06:21:04;;;;;;;0.30;0.30;;;;;;;15.70;62.25;99355.94;4233403;33;34620;-81
2022/10/03 06:23:58;;;;;;;0.40;0.40;;;;;;;15.66;62.04;99375.31;4231561;33;34830;-84
2022/10/03 06:26:41;;;;;;;0.47;0.47;;;;;;;15.42;62.89;99370.81;4234950;33;34434;-82
2022/10/03 06:29:40;;;;;;;0.30;0.30;;;;;;;15.39;62.62;99381.41;4245303;33;34467;-84
2022/10/03 06:32:21;;;;;;;0.30;0.30;;;;;;;15.81;61.19;99381.03;4245412;33;34576;-86
2022/10/03 06:34:53;;;;;;;0.22;0.22;;;;;;;15.83;60.53;99392.34;4245367;33;34643;-85
2022/10/03 06:37:58;;;;;;;0.40;0.40;;;;;;;15.86;60.67;99394.88;4232662;33;34544;-84
2022/10/03 06:40:51;;;;;;;0.20;0.20;;;;;;;15.75;61.21;99404.88;4245551;33;34280;-87
2022/10/03 06:43:41;;;;;;;0.47;0.47;;;;;;;15.69;60.09;99400.63;4234018;33;33369;-93
2022/10/03 06:46:46;;;;;;;0.30;0.30;;;;;;;15.76;61.29;99396.94;4245642;33;35604;-92
2022/10/03 06:49:36;;;;;;;0.30;0.30;;;;;;;16.22;60.49;99403.34;4233451;33;34510;-78
2022/10/03 06:52:30;;;;;;;0.32;0.32;;;;;;;16.17;60.12;99402.62;4257366;33;34236;-76
2022/10/03 06:55:37;;;;;;;0.20;0.20;;;;;;;16.13;60.09;99406.28;4230980;33;33465;-85
2022/10/03 06:58:22;;;;;;;0.60;0.60;;;;;;;16.14;59.55;99401.88;4239599;33;35016;-77
2022/10/03 07:01:20;;;;;;;0.30;0.30;;;;;;;16.17;58.24;99391.28;4233399;33;34236;-93
2022/10/03 07:04:15;;;;;;;0.20;0.20;;;;;;;15.93;60.94;99399.03;4246382;33;33433;-76
2022/10/03 07:07:13;;;;;;;0.30;0.30;;;;;;;16.26;59.74;99391.81;4246527;33;34629;-88
2022/10/03 07:09:43;;;;;;;0.20;0.20;;;;;;;16.01;60.03;99399.66;4228134;33;35055;-85
2022/10/03 07:12:24;;;;;;;0.35;0.35;;;;;;;16.33;59.23;99418.75;4246555;33;35148;-78
2022/10/03 07:15:31;;;;;;;0.20;0.20;;;;;;;16.27;59.63;99408.44;4246937;33;33524;-83
2022/10/03 07:18:37;;;;;;;0.45;0.45;;;;;;;16.85;58.80;99390.72;4246385;33;33976;-87
2022/10/03 07:21:27;;;;;;;0.20;0.20;;;;;;;16.87;59.50;99388.88;4233922;33;35909;-86
2022/10/03 07:24:01;;;;;;;0.50;0.50;;;;;;;16.57;60.03;99400.44;4233997;33;34589;-87
2022/10/03 07:27:00;;;;;;;0.20;0.20;;;;;;;16.60;59.22;99405.59;4246467;33;33584;-86
2022/10/03 07:29:51;;;;;;;0.25;0.25;;;;;;;16.62;59.72;99398.50;4233658;33;34601;-87
2022/10/03 07:32:31;;;;;;;1.92;1.77;;;;;;;16.54;59.67;99398.78;4246368;33;34873;-84
2022/10/03 07:35:23;;;;;;;0.40;0.40;;;;;;;16.40;59.33;99408.91;4246371;33;34584;-88
2022/10/03 07:41:24;;;;;;;0.30;0.30;;;;;;;16.57;59.06;99405.69;4247278;33;34778;-85
2022/10/03 07:44:10;;;;;;;0.32;0.32;;;;;;;16.92;58.64;99396.59;4248097;33;35078;-86
2022/10/03 07:46:47;;;;;;;18.83;1.45;;;;;;;17.03;58.26;99402.34;4248181;33;35158;-83
2022/10/03 07:49:45;;;;;;;0.77;0.75;;;;;;;17.02;57.81;99398.00;4248301;33;34386;-86
2022/10/03 07:52:38;;;;;;;0.20;0.20;;;;;;;17.09;56.04;99395.16;4235564;33;34808;-86
2022/10/03 07:55:21;;;;;;;0.32;0.32;;;;;;;17.11;55.85;99406.47;4241060;33;35012;-85
2022/10/03 07:58:07;;;;;;;0.40;0.40;;;;;;;16.99;56.69;99402.50;4248105;33;35247;-86
2022/10/03 08:01:12;;;;;;;0.20;0.20;;;;;;;16.95;56.73;99408.78;4235614;33;33514;-84
2022/10/03 08:03:59;;;;;;;0.40;0.40;;;;;;;16.89;55.54;99417.78;4248088;33;33984;-87
2022/10/03 08:06:38;;;;;;;0.52;0.32;;;;;;;17.03;55.60;99406.75;4248153;33;35015;-88
2022/10/03 08:09:31;;;;;;;0.20;0.20;;;;;;;17.10;55.53;99408.25;4235059;33;34422;-86
2022/10/03 08:12:19;;;;;;;0.57;0.57;;;;;;;17.22;55.37;99415.69;4235186;33;33726;-80
2022/10/03 08:15:03;;;;;;;0.20;0.20;;;;;;;17.47;55.84;99425.31;4235416;33;34781;-86
2022/10/03 08:18:05;;;;;;;0.30;0.30;;;;;;;17.17;54.45;99415.00;4248036;33;35096;-78
2022/10/03 08:20:33;;;;;;;0.35;0.35;;;;;;;17.50;53.56;99417.28;4235561;33;34463;-78
2022/10/03 08:23:23;;;;;;;0.80;0.80;;;;;;;17.65;52.54;99417.59;4248034;33;33451;-84
2022/10/03 08:25:57;;;;;;;0.30;0.30;;;;;;;17.88;51.27;99427.31;4248079;33;34755;-84
2022/10/03 08:28:41;;;;;;;0.30;0.30;;;;;;;17.37;53.02;99426.56;4247892;33;34906;-77
2022/10/03 08:31:24;;;;;;;0.20;0.20;;;;;;;17.40;53.37;99418.53;4248042;33;34433;-90
2022/10/03 08:34:46;;;;;;;0.65;0.65;;;;;;;18.44;52.29;99423.25;4235644;33;33329;-78
2022/10/03 08:37:52;;;;;;;0.30;0.30;;;;;;;18.49;51.22;99410.75;4203909;34;33938;-84
2022/10/03 08:40:52;;;;;;;0.52;0.52;;;;;;;18.35;49.74;99411.31;4247843;33;35898;-84
2022/10/03 08:43:43;;;;;;;7.97;1.40;;;;;;;18.45;50.81;99414.44;4229100;33;34497;-85
2022/10/03 08:46:36;;;;;;;0.57;0.52;;;;;;;18.61;49.30;99428.69;4247797;33;34287;-88
2022/10/03 08:49:27;;;;;;;0.40;0.40;;;;;;;18.91;49.46;99418.62;4235297;33;34868;-88
2022/10/03 08:52:08;;;;;;;0.65;0.65;;;;;;;19.09;48.95;99419.59;4247524;33;34892;-87
2022/10/03 08:54:50;;;;;;;0.20;0.20;;;;;;;18.94;47.62;99415.84;4235280;33;35186;-87
2022/10/03 08:57:20;;;;;;;2.08;1.33;;;;;;;19.11;46.78;99420.41;4247872;33;33563;-86
2022/10/03 09:00:03;;;;;;;0.35;0.35;;;;;;;19.08;47.68;99414.41;4247753;33;34796;-78
2022/10/03 09:02:50;;;;;;;0.57;0.57;;;;;;;19.53;48.13;99410.56;4235100;33;35974;-85
2022/10/03 09:05:41;;;;;;;1.08;0.80;;;;;;;19.81;47.09;99415.44;4247696;33;34550;-84
2022/10/03 09:08:40;;;;;;;0.30;0.30;;;;;;;19.52;48.61;99433.50;4247612;33;33543;-86
2022/10/03 09:11:29;;;;;;;0.20;0.20;;;;;;;19.73;46.60;99427.28;4235144;33;34066;-87
2022/10/03 09:14:19;;;;;;;0.20;0.20;;;;;;;19.57;48.38;99421.84;4247981;33;35194;-85
2022/10/03 09:16:56;;;;;;;0.25;0.25;;;;;;;19.18;48.95;99434.16;4247625;33;34506;-87
2022/10/03 09:20:01;;;;;;;1.27;1.17;;;;;;;18.34;49.05;99438.63;4247839;33;33322;-78
2022/10/03 09:22:57;;;;;;;0.60;0.60;;;;;;;18.98;50.07;99437.69;4247560;33;34092;-86
2022/10/03 09:25:52;;;;;;;0.60;0.60;;;;;;;18.69;49.38;99444.22;4247536;33;35773;-85
2022/10/03 09:28:40;;;;;;;0.28;0.28;;;;;;;18.33;51.46;99428.97;4247955;33;35458;-84
2022/10/03 09:31:41;;;;;;;0.50;0.50;;;;;;;18.48;51.37;99443.31;4230172;33;34287;-84
2022/10/03 09:34:32;;;;;;;0.50;0.50;;;;;;;19.17;50.00;99439.53;4247603;33;33816;-88
2022/10/03 09:37:07;;;;;;;0.30;0.30;;;;;;;18.72;50.35;99439.66;4247672;33;35953;-90
2022/10/03 09:40:05;;;;;;;0.30;0.30;;;;;;;18.90;51.89;99447.72;4234755;33;35079;-80
2022/10/03 09:42:40;;;;;;;0.20;0.20;;;;;;;18.86;49.92;99451.41;4247465;33;33586;-87
2022/10/03 09:45:31;;;;;;;0.25;0.25;;;;;;;18.75;49.98;99447.41;4247574;33;34117;-88
2022/10/03 09:48:02;;;;;;;0.47;0.47;;;;;;;18.54;50.88;99450.97;4219829;33;34997;-79
2022/10/03 09:50:54;;;;;;;0.20;0.20;;;;;;;17.89;51.47;99455.34;4234683;33;32870;-88
2022/10/03 09:53:26;;;;;;;0.30;0.30;;;;;;;18.20;50.96;99444.44;4247431;33;33527;-82
2022/10/03 09:56:25;;;;;;;2.17;2.08;;;;;;;19.02;50.26;99436.63;4247494;33;33941;-87
2022/10/03 09:59:32;;;;;;;0.65;0.65;;;;;;;19.24;49.66;99440.97;4247566;33;35023;-85
2022/10/03 10:02:22;;;;;;;2.10;0.90;;;;;;;18.48;50.66;99451.25;4247349;33;34572;-88
2022/10/03 10:05:02;;;;;;;0.20;0.20;;;;;;;19.37;50.19;99457.97;4246691;33;33746;-87
2022/10/03 10:07:55;;;;;;;0.40;0.40;;;;;;;19.95;47.99;99451.81;4247407;33;34634;-86
2022/10/03 10:11:00;;;;;;;7.47;0.40;;;;;;;20.52;46.47;99449.03;4247328;33;35162;-78
2022/10/03 10:13:49;;;;;;;0.40;0.40;;;;;;;19.42;46.39;99453.34;4247309;33;34429;-86
2022/10/03 10:16:44;;;;;;;0.50;0.50;;;;;;;19.61;46.11;99455.16;4242424;33;33583;-87
2022/10/03 10:19:27;;;;;;;0.20;0.20;;;;;;;20.04;46.54;99454.00;4234723;33;33739;-86
2022/10/03 10:22:39;;;;;;;0.20;0.20;;;;;;;18.80;48.21;99435.84;4247152;33;35339;-84
2022/10/03 10:25:30;;;;;;;0.50;0.37;;;;;;;18.36;49.78;99448.16;4234757;33;35233;-86
2022/10/03 10:28:26;;;;;;;0.28;0.28;;;;;;;18.31;49.21;99460.69;4247248;33;33571;-83
2022/10/03 10:31:13;;;;;;;0.10;0.10;;;;;;;17.86;50.14;99464.25;4247173;33;34037;-77
2022/10/03 10:34:03;;;;;;;0.20;0.20;;;;;;;17.57;50.87;99466.16;4247215;33;35905;-85
2022/10/03 10:37:10;;;;;;;0.50;0.50;;;;;;;17.73;50.89;99466.44;4234411;33;35236;-85
2022/10/03 10:40:00;;;;;;;0.20;0.20;;;;;;;17.58;51.35;99470.50;4234383;33;33448;-90
2022/10/03 10:43:05;;;;;;;5.25;1.87;;;;;;;17.33;53.65;99460.03;4247101;33;34080;-89
2022/10/03 10:45:44;;;;;;;0.40;0.40;;;;;;;17.20;54.34;99462.22;4246909;33;35843;-87
2022/10/03 10:48:46;;;;;;;1.00;1.00;;;;;;;17.39;53.74;99464.22;4247027;33;35263;-85
2022/10/03 10:51:32;;;;;;;1.23;1.12;;;;;;;17.32;54.46;99462.72;4246933;33;33476;-85
2022/10/03 10:54:37;;;;;;;0.30;0.30;;;;;;;17.57;53.92;99454.75;4246972;33;34742;-85
2022/10/03 10:57:25;;;;;;;0.20;0.20;;;;;;;17.93;53.48;99455.19;4246680;33;35031;-87
2022/10/03 11:00:38;;;;;;;0.20;0.20;;;;;;;17.45;52.55;99448.19;4246668;33;35392;-88
2022/10/03 11:03:36;;;;;;;0.17;0.17;;;;;;;17.23;53.53;99451.59;4220715;33;34434;-80
2022/10/03 11:06:41;;;;;;;2.40;2.20;;;;;;;17.37;53.87;99452.87;4234142;33;33975;-85
2022/10/03 11:09:37;;;;;;;0.62;0.62;;;;;;;17.39;54.71;99441.38;4233867;33;35021;-86
2022/10/03 11:12:34;;;;;;;0.28;0.28;;;;;;;17.02;53.62;99442.72;4246657;33;34385;-85
2022/10/03 11:15:21;;;;;;;;;;;;;;;17.08;53.77;99440.78;4247650;33;33520;-77
2022/10/03 11:18:34;;;;;;;0.40;0.40;;;;;;;17.12;54.03;99445.88;4248487;33;34381;-86
2022/10/03 11:21:46;;;;;;;0.30;0.30;;;;;;;18.08;52.65;99437.03;4248412;33;34937;-89
2022/10/03 11:24:32;;;;;;;0.30;0.30;;;;;;;18.21;53.92;99438.25;4248313;33;34290;-78
2022/10/03 11:27:28;;;;;;;1.73;0.37;;;;;;;19.11;52.00;99441.53;4248464;33;34401;-87
2022/10/03 11:30:49;;;;;;;0.20;0.20;;;;;;;18.90;50.40;99439.78;4248412;33;33904;-85
2022/10/03 11:33:42;;;;;;;0.20;0.20;;;;;;;18.36;49.72;99457.88;4190512;34;35826;-78
2022/10/03 11:36:28;;;;;;;0.20;0.20;;;;;;;18.08;50.06;99447.56;4190520;34;34361;-89
2022/10/03 11:39:14;;;;;;;0.20;0.20;;;;;;;17.80;52.24;99435.44;4241377;33;34553;-87
2022/10/03 11:41:57;;;;;;;0.20;0.20;;;;;;;17.50;51.98;99448.03;4236159;33;33968;-89
2022/10/03 11:44:32;;;;;;;0.22;0.22;;;;;;;17.49;52.00;99449.81;4248220;33;35171;-78
2022/10/03 11:47:42;;;;;;;0.20;0.20;;;;;;;17.70;50.78;99452.53;4235670;33;34577;-81
2022/10/03 11:50:19;;;;;;;0.45;0.45;;;;;;;17.32;51.66;99449.56;4178895;34;33709;-88
2022/10/03 11:53:15;;;;;;;0.20;0.20;;;;;;;17.15;52.61;99451.00;4190395;34;33680;-85
2022/10/03 11:55:50;;;;;;;0.30;0.30;;;;;;;17.08;53.87;99449.53;4234709;33;35811;-86
2022/10/03 11:58:43;;;;;;;0.30;0.30;;;;;;;17.47;53.80;99440.22;4248108;33;35065;-86
2022/10/03 12:01:12;;;;;;;0.32;0.32;;;;;;;17.15;53.80;99440.50;4248106;33;34444;-90
2022/10/03 12:04:16;;;;;;;0.20;0.20;;;;;;;17.48;53.05;99442.81;4248184;33;34776;-86
2022/10/03 12:10:39;;;;;;;0.20;0.20;;;;;;;17.44;54.10;99449.09;4237238;33;34331;-78
2022/10/03 12:13:36;;;;;;;0.20;0.20;;;;;;;17.46;54.31;99439.38;4215089;33;33468;-90
2022/10/03 12:16:11;;;;;;;0.30;0.30;;;;;;;17.47;52.69;99441.09;4231354;33;34023;-78
2022/10/03 12:18:41;;;;;;;0.20;0.20;;;;;;;17.21;52.66;99437.66;4223240;33;33547;-85
2022/10/03 12:21:11;;;;;;;0.40;0.40;;;;;;;17.14;54.18;99438.78;4247508;33;34475;-79
2022/10/03 12:24:01;;;;;;;0.43;0.43;;;;;;;17.45;53.38;99437.66;4247706;33;32565;-92
2022/10/03 12:27:14;;;;;;;0.30;0.30;;;;;;;17.25;52.99;99446.28;4234390;33;34836;-88
2022/10/03 12:29:57;;;;;;;0.35;0.35;;;;;;;17.10;52.52;99442.44;4230634;33;35172;-85
2022/10/03 12:32:28;;;;;;;0.30;0.30;;;;;;;16.90;52.17;99443.13;4235094;33;34397;-77
2022/10/03 12:35:06;;;;;;;0.30;0.30;;;;;;;17.53;51.57;99425.06;4234948;33;34407;-84
2022/10/03 12:37:56;;;;;;;0.40;0.40;;;;;;;17.67;50.96;99429.81;4247572;33;33807;-79
2022/10/03 12:40:29;;;;;;;0.30;0.30;;;;;;;17.59;51.99;99421.34;4247391;33;35173;-78
2022/10/03 12:43:28;;;;;;;0.65;0.65;;;;;;;17.77;51.03;99432.94;4235053;33;34488;-78
2022/10/03 12:46:00;;;;;;;0.20;0.20;;;;;;;17.70;50.03;99423.56;4245288;33;33220;-78
2022/10/03 12:49:04;;;;;;;0.20;0.20;;;;;;;17.86;49.61;99429.09;4235253;33;33935;-79
2022/10/03 12:51:50;;;;;;;0.32;0.32;;;;;;;17.88;49.77;99420.25;4247238;33;35101;-89
2022/10/03 12:54:30;;;;;;;0.15;0.15;;;;;;;17.78;51.65;99422.34;4234818;33;34961;-80
2022/10/03 12:57:36;;;;;;;0.20;0.20;;;;;;;17.94;51.29;99417.34;4247929;33;33626;-80
2022/10/03 13:00:27;;;;;;;0.28;0.28;;;;;;;18.04;50.52;99419.66;4247720;33;34834;-79
2022/10/03 13:02:57;;;;;;;0.20;0.20;;;;;;;17.90;50.71;99455.28;4235135;33;35937;-79
2022/10/03 13:06:16;;;;;;;0.82;0.82;;;;;;;17.03;56.89;99472.53;4247835;33;33741;-78
2022/10/03 13:08:50;;;;;;;0.25;0.25;;;;;;;16.02;60.09;99455.66;4223834;33;33315;-79
2022/10/03 13:11:55;;;;;;;0.20;0.20;;;;;;;15.80;60.64;99460.72;4247733;33;34805;-79
2022/10/03 13:14:28;;;;;;;0.30;0.30;;;;;;;15.66;62.54;99467.19;4247754;33;34827;-79
2022/10/03 13:17:25;;;;;;;0.30;0.30;;;;;;;15.94;62.20;99458.53;4247770;33;34357;-78
2022/10/03 13:19:58;;;;;;;0.75;0.75;;;;;;;16.27;62.05;99455.72;4234941;33;31894;-78
2022/10/03 13:22:51;;;;;;;0.20;0.20;;;;;;;16.19;60.94;99449.88;4247618;33;34387;-78
2022/10/03 13:25:44;;;;;;;0.37;0.37;;;;;;;16.71;59.76;99450.78;4234972;33;35063;-79